APG912 RPVK-RPLL
Flight info
| Callsign | APG912 |
|---|---|
| Flight time | 0h 48m |
| Altitude | 30000 |
| Route | MINOR2R MINOR B473 LAIYA LAIYA7R |
| Aircraft | A320/M-SDE3FGHIRWY/LB1 |
Departure
| Time | 2026-04-25 14:44 |
|---|---|
| Airport | Kalibo International Airport (RPVK) |
Arrival
| Time | 2026-04-25 15:32 |
|---|---|
| Airport | Ninoy Aquino International Airport (RPLL) |
| Time | Latitude | Longitude | Altitude | Speed | Heading |
|---|---|---|---|---|---|
| 2026-04-25 14:09 | 11.68545 | 122.38107 | 23 ft | 0 kts | 351° |
| 2026-04-25 14:39 | 11.68547 | 122.38107 | 21 ft | 1 kts | 5° |
| 2026-04-25 14:40 | 11.68548 | 122.38108 | 21 ft | 0 kts | 18° |
| 2026-04-25 14:40 | 11.68548 | 122.38114 | 21 ft | 0 kts | 79° |
| 2026-04-25 14:40 | 11.68547 | 122.38116 | 21 ft | 0 kts | 89° |
| 2026-04-25 14:40 | 11.68546 | 122.38120 | 22 ft | 3 kts | 105° |
| 2026-04-25 14:41 | 11.68533 | 122.38126 | 23 ft | 0 kts | 166° |
| 2026-04-25 14:41 | 11.68527 | 122.38140 | 22 ft | 3 kts | 73° |
| 2026-04-25 14:41 | 11.68543 | 122.38162 | 22 ft | 2 kts | 52° |
| 2026-04-25 14:41 | 11.68554 | 122.38199 | 21 ft | 7 kts | 91° |
| 2026-04-25 14:42 | 11.68556 | 122.38248 | 21 ft | 11 kts | 67° |
| 2026-04-25 14:42 | 11.68573 | 122.38272 | 22 ft | 14 kts | 50° |
| 2026-04-25 14:42 | 11.68689 | 122.38389 | 23 ft | 8 kts | 65° |
| 2026-04-25 14:42 | 11.68672 | 122.38390 | 25 ft | 5 kts | 226° |
| 2026-04-25 14:43 | 11.68663 | 122.38378 | 24 ft | 2 kts | 229° |
| 2026-04-25 14:43 | 11.68592 | 122.38294 | 21 ft | 36 kts | 229° |
| 2026-04-25 14:43 | 11.68256 | 122.37906 | 19 ft | 108 kts | 230° |
| 2026-04-25 14:43 | 11.67619 | 122.37179 | 35 ft | 162 kts | 227° |
| 2026-04-25 14:44 | 11.66879 | 122.36284 | 642 ft | 167 kts | 230° |
| 2026-04-25 14:44 | 11.66171 | 122.35324 | 1311 ft | 173 kts | 238° |
| 2026-04-25 14:44 | 11.65965 | 122.34066 | 1736 ft | 194 kts | 287° |
| 2026-04-25 14:44 | 11.66784 | 122.32945 | 2098 ft | 211 kts | 336° |
| 2026-04-25 14:45 | 11.68192 | 122.32470 | 2498 ft | 228 kts | 352° |
| 2026-04-25 14:45 | 11.69814 | 122.32172 | 2942 ft | 252 kts | 355° |
| 2026-04-25 14:45 | 11.71612 | 122.31905 | 3583 ft | 267 kts | 356° |
| 2026-04-25 14:45 | 11.73472 | 122.31628 | 4482 ft | 272 kts | 355° |
| 2026-04-25 14:46 | 11.75357 | 122.31331 | 5373 ft | 277 kts | 354° |
| 2026-04-25 14:46 | 11.77270 | 122.31014 | 6260 ft | 281 kts | 354° |
| 2026-04-25 14:46 | 11.79206 | 122.30681 | 7088 ft | 284 kts | 353° |
| 2026-04-25 14:46 | 11.81167 | 122.30336 | 7927 ft | 287 kts | 352° |
| 2026-04-25 14:47 | 11.83147 | 122.29984 | 8772 ft | 291 kts | 352° |
| 2026-04-25 14:47 | 11.83826 | 122.29862 | 9059 ft | 292 kts | 352° |
| 2026-04-25 14:47 | 11.87195 | 122.29262 | 10257 ft | 305 kts | 352° |
| 2026-04-25 14:47 | 11.89370 | 122.28877 | 10502 ft | 328 kts | 351° |
| 2026-04-25 14:48 | 11.91698 | 122.28465 | 10780 ft | 348 kts | 351° |
| 2026-04-25 14:48 | 11.94089 | 122.28037 | 11355 ft | 356 kts | 351° |
| 2026-04-25 14:48 | 11.96542 | 122.27599 | 12021 ft | 361 kts | 351° |
| 2026-04-25 14:48 | 11.99040 | 122.27153 | 12683 ft | 365 kts | 350° |
| 2026-04-25 14:49 | 12.01562 | 122.26703 | 13341 ft | 369 kts | 350° |
| 2026-04-25 14:49 | 12.04106 | 122.26248 | 13946 ft | 374 kts | 350° |
| 2026-04-25 14:49 | 12.06684 | 122.25788 | 14533 ft | 378 kts | 350° |
| 2026-04-25 14:49 | 12.08410 | 122.25514 | 14774 ft | 380 kts | 354° |
| 2026-04-25 14:50 | 12.11041 | 122.25316 | 14916 ft | 379 kts | 356° |
| 2026-04-25 14:50 | 12.13677 | 122.25130 | 14951 ft | 379 kts | 356° |
| 2026-04-25 14:50 | 12.17189 | 122.24879 | 14954 ft | 379 kts | 356° |
| 2026-04-25 14:50 | 12.18933 | 122.24753 | 14952 ft | 378 kts | 356° |
| 2026-04-25 14:51 | 12.21564 | 122.24562 | 14955 ft | 378 kts | 356° |
| 2026-04-25 14:51 | 12.24213 | 122.24371 | 15320 ft | 383 kts | 356° |
| 2026-04-25 14:51 | 12.26872 | 122.24177 | 15964 ft | 385 kts | 356° |
| 2026-04-25 14:51 | 12.30430 | 122.23915 | 16735 ft | 389 kts | 356° |
| 2026-04-25 14:52 | 12.32261 | 122.23779 | 17119 ft | 391 kts | 356° |
| 2026-04-25 14:52 | 12.34973 | 122.23399 | 17656 ft | 396 kts | 348° |
| 2026-04-25 14:52 | 12.37583 | 122.22549 | 18185 ft | 401 kts | 338° |
| 2026-04-25 14:52 | 12.39283 | 122.21699 | 18497 ft | 404 kts | 331° |
| 2026-04-25 14:53 | 12.42404 | 122.19592 | 19094 ft | 408 kts | 326° |
| 2026-04-25 14:53 | 12.44761 | 122.17949 | 19563 ft | 411 kts | 326° |
| 2026-04-25 14:53 | 12.47137 | 122.16299 | 20032 ft | 413 kts | 326° |
| 2026-04-25 14:53 | 12.49528 | 122.14644 | 20499 ft | 416 kts | 325° |
| 2026-04-25 14:54 | 12.51940 | 122.12973 | 20963 ft | 418 kts | 325° |
| 2026-04-25 14:54 | 12.54352 | 122.11297 | 21417 ft | 421 kts | 325° |
| 2026-04-25 14:54 | 12.56755 | 122.09626 | 21878 ft | 423 kts | 324° |
| 2026-04-25 14:54 | 12.59195 | 122.07928 | 22361 ft | 425 kts | 324° |
| 2026-04-25 14:55 | 12.61646 | 122.06221 | 22826 ft | 427 kts | 324° |
| 2026-04-25 14:55 | 12.64116 | 122.04503 | 23262 ft | 430 kts | 324° |
| 2026-04-25 14:55 | 12.66591 | 122.02779 | 23655 ft | 432 kts | 324° |
| 2026-04-25 14:55 | 12.69083 | 122.01043 | 24008 ft | 434 kts | 324° |
| 2026-04-25 14:56 | 12.71591 | 121.99295 | 24372 ft | 436 kts | 324° |
| 2026-04-25 14:56 | 12.74110 | 121.97541 | 24728 ft | 438 kts | 324° |
| 2026-04-25 14:56 | 12.76586 | 121.95820 | 25079 ft | 440 kts | 324° |
| 2026-04-25 14:56 | 12.79128 | 121.94053 | 25424 ft | 442 kts | 324° |
| 2026-04-25 14:57 | 12.81678 | 121.92280 | 25778 ft | 444 kts | 324° |
| 2026-04-25 14:57 | 12.84234 | 121.90498 | 25923 ft | 444 kts | 324° |
| 2026-04-25 14:57 | 12.86757 | 121.88738 | 25961 ft | 442 kts | 324° |
| 2026-04-25 14:57 | 12.89305 | 121.86962 | 25965 ft | 442 kts | 324° |
| 2026-04-25 14:58 | 12.91844 | 121.85191 | 25963 ft | 441 kts | 324° |
| 2026-04-25 14:58 | 12.94377 | 121.83423 | 25965 ft | 441 kts | 323° |
| 2026-04-25 14:58 | 12.96916 | 121.81646 | 25964 ft | 441 kts | 323° |
| 2026-04-25 14:58 | 12.99456 | 121.79868 | 25964 ft | 441 kts | 323° |
| 2026-04-25 14:59 | 13.01991 | 121.78097 | 25966 ft | 441 kts | 323° |
| 2026-04-25 14:59 | 13.04506 | 121.76343 | 25968 ft | 441 kts | 324° |
| 2026-04-25 14:59 | 13.07043 | 121.74576 | 25967 ft | 441 kts | 324° |
| 2026-04-25 14:59 | 13.09586 | 121.72805 | 25964 ft | 441 kts | 323° |
| 2026-04-25 15:00 | 13.12126 | 121.71036 | 25966 ft | 441 kts | 323° |
| 2026-04-25 15:00 | 13.14658 | 121.69268 | 25967 ft | 441 kts | 323° |
| 2026-04-25 15:00 | 13.17189 | 121.67496 | 25970 ft | 440 kts | 323° |
| 2026-04-25 15:00 | 13.19721 | 121.65722 | 25967 ft | 440 kts | 323° |
| 2026-04-25 15:01 | 13.22249 | 121.63949 | 25969 ft | 440 kts | 323° |
| 2026-04-25 15:01 | 13.24781 | 121.62172 | 25974 ft | 440 kts | 323° |
| 2026-04-25 15:01 | 13.27312 | 121.60401 | 25970 ft | 440 kts | 323° |
| 2026-04-25 15:01 | 13.29848 | 121.58626 | 25971 ft | 440 kts | 323° |
| 2026-04-25 15:02 | 13.32382 | 121.56856 | 25974 ft | 440 kts | 323° |
| 2026-04-25 15:02 | 13.34909 | 121.55090 | 25974 ft | 440 kts | 323° |
| 2026-04-25 15:02 | 13.37414 | 121.53338 | 25972 ft | 440 kts | 323° |
| 2026-04-25 15:02 | 13.39939 | 121.51568 | 25974 ft | 440 kts | 323° |
| 2026-04-25 15:03 | 13.42467 | 121.49793 | 25975 ft | 440 kts | 323° |
| 2026-04-25 15:03 | 13.44991 | 121.48021 | 25975 ft | 440 kts | 323° |
| 2026-04-25 15:03 | 13.47520 | 121.46247 | 25982 ft | 439 kts | 323° |
| 2026-04-25 15:03 | 13.50042 | 121.44478 | 25982 ft | 439 kts | 323° |
| 2026-04-25 15:04 | 13.52566 | 121.42705 | 25920 ft | 436 kts | 323° |
| 2026-04-25 15:04 | 13.55039 | 121.40972 | 25683 ft | 424 kts | 323° |
| 2026-04-25 15:04 | 13.57416 | 121.39310 | 25453 ft | 411 kts | 323° |
| 2026-04-25 15:04 | 13.59731 | 121.37654 | 25235 ft | 400 kts | 322° |
| 2026-04-25 15:05 | 13.61963 | 121.36003 | 25012 ft | 389 kts | 321° |
| 2026-04-25 15:05 | 13.64122 | 121.34374 | 24789 ft | 379 kts | 321° |
| 2026-04-25 15:05 | 13.66230 | 121.32775 | 24560 ft | 374 kts | 321° |
| 2026-04-25 15:06 | 13.70391 | 121.29630 | 24125 ft | 370 kts | 321° |
| 2026-04-25 15:06 | 13.72468 | 121.28075 | 23910 ft | 369 kts | 321° |
| 2026-04-25 15:06 | 13.74518 | 121.26545 | 23698 ft | 368 kts | 321° |
| 2026-04-25 15:06 | 13.76588 | 121.25002 | 23476 ft | 367 kts | 321° |
| 2026-04-25 15:07 | 13.78652 | 121.23465 | 23214 ft | 366 kts | 322° |
| 2026-04-25 15:07 | 13.80718 | 121.21929 | 22955 ft | 364 kts | 322° |
| 2026-04-25 15:07 | 13.82769 | 121.20402 | 22703 ft | 363 kts | 322° |
| 2026-04-25 15:07 | 13.84813 | 121.18877 | 22458 ft | 361 kts | 322° |
| 2026-04-25 15:08 | 13.86845 | 121.17363 | 22201 ft | 360 kts | 322° |
| 2026-04-25 15:08 | 13.88870 | 121.15853 | 21951 ft | 358 kts | 322° |
| 2026-04-25 15:08 | 13.90858 | 121.14367 | 21703 ft | 356 kts | 322° |
| 2026-04-25 15:08 | 13.92856 | 121.12870 | 21313 ft | 353 kts | 322° |
| 2026-04-25 15:09 | 13.94868 | 121.11363 | 20459 ft | 364 kts | 322° |
| 2026-04-25 15:09 | 13.96944 | 121.09810 | 19309 ft | 373 kts | 322° |
| 2026-04-25 15:09 | 14.01263 | 121.06580 | 16736 ft | 390 kts | 323° |
| 2026-04-25 15:10 | 14.03407 | 121.04977 | 16356 ft | 369 kts | 323° |
| 2026-04-25 15:10 | 14.05466 | 121.03437 | 15314 ft | 369 kts | 323° |
| 2026-04-25 15:10 | 14.09723 | 121.00250 | 12932 ft | 378 kts | 323° |
| 2026-04-25 15:11 | 14.11758 | 120.98731 | 12652 ft | 353 kts | 323° |
| 2026-04-25 15:11 | 14.13690 | 120.97288 | 12405 ft | 331 kts | 323° |
| 2026-04-25 15:11 | 14.15499 | 120.95936 | 12161 ft | 312 kts | 323° |
| 2026-04-25 15:12 | 14.18952 | 120.93606 | 11678 ft | 285 kts | 329° |
| 2026-04-25 15:12 | 14.20662 | 120.92597 | 11441 ft | 282 kts | 330° |
| 2026-04-25 15:12 | 14.22359 | 120.91598 | 11199 ft | 280 kts | 330° |
| 2026-04-25 15:12 | 14.22906 | 120.91275 | 11129 ft | 280 kts | 330° |
| 2026-04-25 15:13 | 14.25359 | 120.89173 | 10732 ft | 273 kts | 300° |
| 2026-04-25 15:13 | 14.25746 | 120.85483 | 10265 ft | 264 kts | 250° |
| 2026-04-25 15:13 | 14.24921 | 120.83809 | 10039 ft | 261 kts | 240° |
| 2026-04-25 15:14 | 14.24027 | 120.82206 | 9881 ft | 254 kts | 240° |
| 2026-04-25 15:14 | 14.23159 | 120.80650 | 9755 ft | 248 kts | 240° |
| 2026-04-25 15:14 | 14.22304 | 120.79114 | 9621 ft | 246 kts | 240° |
| 2026-04-25 15:14 | 14.21452 | 120.77582 | 9496 ft | 246 kts | 240° |
| 2026-04-25 15:15 | 14.20601 | 120.76051 | 9372 ft | 246 kts | 240° |
| 2026-04-25 15:15 | 14.19742 | 120.74521 | 9234 ft | 246 kts | 240° |
| 2026-04-25 15:15 | 14.18882 | 120.72999 | 9121 ft | 246 kts | 240° |
| 2026-04-25 15:15 | 14.18024 | 120.71478 | 8994 ft | 245 kts | 240° |
| 2026-04-25 15:16 | 14.17164 | 120.69957 | 8869 ft | 245 kts | 240° |
| 2026-04-25 15:16 | 14.16311 | 120.68452 | 8739 ft | 245 kts | 240° |
| 2026-04-25 15:16 | 14.14591 | 120.65419 | 8486 ft | 245 kts | 240° |
| 2026-04-25 15:17 | 14.12870 | 120.62381 | 8252 ft | 245 kts | 240° |
| 2026-04-25 15:17 | 14.12013 | 120.60867 | 8127 ft | 243 kts | 239° |
| 2026-04-25 15:17 | 14.11382 | 120.59260 | 8001 ft | 242 kts | 263° |
| 2026-04-25 15:18 | 14.11514 | 120.57557 | 7881 ft | 240 kts | 291° |
| 2026-04-25 15:18 | 14.13729 | 120.55171 | 7655 ft | 236 kts | 332° |
| 2026-04-25 15:18 | 14.15163 | 120.54333 | 7530 ft | 236 kts | 332° |
| 2026-04-25 15:19 | 14.16588 | 120.53489 | 7415 ft | 236 kts | 332° |
| 2026-04-25 15:19 | 14.17050 | 120.53215 | 7374 ft | 236 kts | 332° |
| 2026-04-25 15:19 | 14.19443 | 120.51806 | 7174 ft | 236 kts | 335° |
| 2026-04-25 15:19 | 14.20986 | 120.51428 | 7052 ft | 231 kts | 5° |
| 2026-04-25 15:20 | 14.22507 | 120.51867 | 6939 ft | 227 kts | 33° |
| 2026-04-25 15:20 | 14.23625 | 120.52982 | 6822 ft | 225 kts | 59° |
| 2026-04-25 15:20 | 14.24402 | 120.54385 | 6709 ft | 225 kts | 61° |
| 2026-04-25 15:20 | 14.25176 | 120.55786 | 6595 ft | 225 kts | 61° |
| 2026-04-25 15:21 | 14.25952 | 120.57184 | 6480 ft | 224 kts | 60° |
| 2026-04-25 15:21 | 14.26728 | 120.58575 | 6363 ft | 224 kts | 60° |
| 2026-04-25 15:21 | 14.27515 | 120.59981 | 6238 ft | 223 kts | 60° |
| 2026-04-25 15:21 | 14.28278 | 120.61348 | 6125 ft | 223 kts | 60° |
| 2026-04-25 15:22 | 14.29050 | 120.62730 | 5998 ft | 222 kts | 61° |
| 2026-04-25 15:22 | 14.29817 | 120.64107 | 5869 ft | 222 kts | 60° |
| 2026-04-25 15:22 | 14.30586 | 120.65486 | 5757 ft | 221 kts | 61° |
| 2026-04-25 15:22 | 14.31342 | 120.66862 | 5633 ft | 221 kts | 61° |
| 2026-04-25 15:23 | 14.32095 | 120.68240 | 5514 ft | 220 kts | 61° |
| 2026-04-25 15:23 | 14.32855 | 120.69611 | 5390 ft | 220 kts | 60° |
| 2026-04-25 15:23 | 14.33584 | 120.70917 | 5279 ft | 219 kts | 60° |
| 2026-04-25 15:23 | 14.34329 | 120.72253 | 5160 ft | 211 kts | 61° |
| 2026-04-25 15:24 | 14.35047 | 120.73539 | 5064 ft | 203 kts | 61° |
| 2026-04-25 15:24 | 14.35737 | 120.74778 | 5013 ft | 193 kts | 61° |
| 2026-04-25 15:24 | 14.36375 | 120.75920 | 4975 ft | 177 kts | 61° |
| 2026-04-25 15:24 | 14.36573 | 120.76275 | 4929 ft | 174 kts | 61° |
| 2026-04-25 15:25 | 14.37550 | 120.78029 | 4646 ft | 165 kts | 61° |
| 2026-04-25 15:25 | 14.38118 | 120.79047 | 4429 ft | 162 kts | 62° |
| 2026-04-25 15:25 | 14.38671 | 120.80040 | 4217 ft | 158 kts | 62° |
| 2026-04-25 15:25 | 14.39212 | 120.81012 | 4024 ft | 154 kts | 62° |
| 2026-04-25 15:26 | 14.39726 | 120.81934 | 3834 ft | 144 kts | 62° |
| 2026-04-25 15:26 | 14.40214 | 120.82809 | 3664 ft | 139 kts | 62° |
| 2026-04-25 15:26 | 14.40691 | 120.83666 | 3474 ft | 137 kts | 62° |
| 2026-04-25 15:26 | 14.41165 | 120.84518 | 3307 ft | 137 kts | 62° |
| 2026-04-25 15:27 | 14.41642 | 120.85375 | 3129 ft | 137 kts | 62° |
| 2026-04-25 15:27 | 14.42115 | 120.86223 | 2956 ft | 136 kts | 63° |
| 2026-04-25 15:27 | 14.43054 | 120.87912 | 2612 ft | 135 kts | 62° |
| 2026-04-25 15:28 | 14.43520 | 120.88748 | 2440 ft | 134 kts | 62° |
| 2026-04-25 15:28 | 14.43983 | 120.89580 | 2267 ft | 133 kts | 62° |
| 2026-04-25 15:28 | 14.44444 | 120.90409 | 2090 ft | 133 kts | 61° |
| 2026-04-25 15:28 | 14.44903 | 120.91234 | 1922 ft | 133 kts | 62° |
| 2026-04-25 15:29 | 14.45365 | 120.92064 | 1752 ft | 134 kts | 62° |
| 2026-04-25 15:29 | 14.45829 | 120.92898 | 1583 ft | 132 kts | 62° |
| 2026-04-25 15:29 | 14.46285 | 120.93718 | 1401 ft | 132 kts | 62° |
| 2026-04-25 15:29 | 14.46742 | 120.94538 | 1242 ft | 131 kts | 62° |
| 2026-04-25 15:30 | 14.47198 | 120.95359 | 1076 ft | 133 kts | 60° |
| 2026-04-25 15:30 | 14.47659 | 120.96188 | 918 ft | 133 kts | 60° |
| 2026-04-25 15:30 | 14.48121 | 120.97018 | 739 ft | 134 kts | 60° |
| 2026-04-25 15:30 | 14.48553 | 120.97795 | 578 ft | 135 kts | 61° |
| 2026-04-25 15:31 | 14.49019 | 120.98634 | 397 ft | 135 kts | 61° |
| 2026-04-25 15:31 | 14.49482 | 120.99462 | 239 ft | 134 kts | 63° |
| 2026-04-25 15:31 | 14.49946 | 121.00292 | 106 ft | 133 kts | 62° |
| 2026-04-25 15:31 | 14.50379 | 121.01075 | 69 ft | 114 kts | 63° |
| 2026-04-25 15:32 | 14.50670 | 121.01596 | 64 ft | 35 kts | 59° |
| 2026-04-25 15:32 | 14.50748 | 121.01702 | 67 ft | 17 kts | 44° |
| 2026-04-25 15:32 | 14.50833 | 121.01771 | 65 ft | 9 kts | 37° |
| 2026-04-25 15:33 | 14.50899 | 121.01744 | 65 ft | 8 kts | 267° |
| 2026-04-25 15:33 | 14.50849 | 121.01643 | 67 ft | 23 kts | 240° |
| 2026-04-25 15:33 | 14.50790 | 121.01539 | 66 ft | 17 kts | 239° |
| 2026-04-25 15:33 | 14.50719 | 121.01409 | 64 ft | 18 kts | 239° |
| 2026-04-25 15:34 | 14.50701 | 121.01325 | 61 ft | 9 kts | 310° |
| 2026-04-25 15:34 | 14.50737 | 121.01316 | 66 ft | 3 kts | 14° |
| 2026-04-25 15:34 | 14.50753 | 121.01318 | 64 ft | 2 kts | 0° |
| 2026-04-25 15:34 | 14.50758 | 121.01318 | 62 ft | 2 kts | 355° |
| 2026-04-25 15:35 | 14.50817 | 121.01278 | 64 ft | 6 kts | 330° |
| 2026-04-25 15:35 | 14.50829 | 121.01271 | 69 ft | 0 kts | 330° |